Time;durP1;ratioP1;P1;durP2;ratioP2;P2;SDS_P1;SDS_P2;PMS_P1;PMS_P2;Temp;Humidity;BMP_temperature;BMP_pressure;BME280_temperature;BME280_humidity;BME280_pressure;Samples;Min_cycle;Max_cycle;Signal;HPM_P1;HPM_P2
2022/08/31 01:28:50;;;;;;;7.40;5.90;;;15.40;99.90;;;;;;5802738;23;20032;-85
2022/08/31 01:31:25;;;;;;;8.05;6.68;;;15.50;99.90;;;;;;4878476;29;20056;-85
2022/08/31 01:33:54;;;;;;;7.10;6.40;;;15.50;99.90;;;;;;4861978;29;20057;-85
2022/08/31 03:16:14;;;;;;;7.38;6.68;;;14.80;99.90;;;;;;4914094;29;20481;-85
2022/08/31 03:18:42;;;;;;;8.52;7.50;;;14.90;99.90;;;;;;4891963;29;20041;-85
2022/08/31 07:47:56;;;;;;;9.38;6.82;;;16.30;99.90;;;;;;5069737;23;20052;-83
2022/08/31 07:50:29;;;;;;;14.40;7.88;;;16.40;99.90;;;;;;4880152;29;20048;-85
2022/08/31 07:53:16;;;;;;;12.48;8.55;;;16.40;99.90;;;;;;4876074;29;20057;-83
2022/08/31 07:55:54;;;;;;;12.73;8.85;;;16.50;99.90;;;;;;4830675;29;20128;-83
2022/08/31 07:58:38;;;;;;;7.88;6.65;;;16.50;99.90;;;;;;4844722;29;20651;-85
2022/08/31 08:01:11;;;;;;;12.63;8.52;;;16.60;99.90;;;;;;4860751;29;20049;-83
2022/08/31 08:03:42;;;;;;;10.13;7.65;;;16.60;99.90;;;;;;4859981;29;20372;-84
2022/08/31 08:06:29;;;;;;;9.63;7.28;;;16.60;99.90;;;;;;4861218;29;20519;-84
2022/08/31 08:09:10;;;;;;;14.13;8.10;;;16.70;99.90;;;;;;4875492;29;20045;-84
2022/08/31 08:12:05;;;;;;;12.02;7.75;;;16.70;99.90;;;;;;4845038;29;20041;-84
2022/08/31 08:14:40;;;;;;;13.15;9.27;;;16.80;99.90;;;;;;4873044;29;20060;-84
2022/08/31 08:17:16;;;;;;;12.43;10.02;;;16.90;99.90;;;;;;4883493;29;20391;-82
2022/08/31 08:19:51;;;;;;;8.07;7.22;;;16.90;99.90;;;;;;4897443;29;20401;-82
2022/08/31 08:22:19;;;;;;;11.95;6.97;;;17.00;99.90;;;;;;4881916;29;20060;-83
2022/08/31 08:25:34;;;;;;;9.75;8.27;;;17.00;99.90;;;;;;4885382;29;20044;-83
2022/08/31 08:28:26;;;;;;;9.75;8.63;;;17.10;99.90;;;;;;4913759;29;20056;-84
2022/08/31 08:31:21;;;;;;;10.52;6.40;;;17.10;99.90;;;;;;4869389;29;20060;-86
2022/08/31 08:33:53;;;;;;;16.58;7.90;;;17.10;99.90;;;;;;4896695;29;20064;-84
2022/08/31 08:36:21;;;;;;;10.85;8.65;;;17.10;99.90;;;;;;4897142;29;20074;-85
2022/08/31 08:38:53;;;;;;;16.77;9.30;;;17.20;99.90;;;;;;4880054;29;20052;-84
2022/08/31 08:41:27;;;;;;;12.32;7.75;;;17.10;99.90;;;;;;4883071;29;20053;-83
2022/08/31 08:43:59;;;;;;;8.75;7.72;;;17.20;99.90;;;;;;4849966;29;20045;-84
2022/08/31 08:46:50;;;;;;;13.93;8.20;;;17.20;99.90;;;;;;4857372;29;20065;-84
2022/08/31 08:50:05;;;;;;;9.73;7.15;;;17.10;99.90;;;;;;4856055;29;20056;-84
2022/08/31 08:53:04;;;;;;;8.77;7.65;;;17.00;99.90;;;;;;4849587;29;20522;-85
2022/08/31 08:55:41;;;;;;;9.07;7.80;;;16.90;99.90;;;;;;4855698;29;20061;-84
2022/08/31 08:58:12;;;;;;;15.43;9.20;;;17.00;99.90;;;;;;4841061;29;20053;-84
2022/08/31 09:00:45;;;;;;;12.48;8.63;;;17.00;99.90;;;;;;4856823;29;20542;-85
2022/08/31 09:04:05;;;;;;;10.07;8.15;;;17.00;99.90;;;;;;4856788;29;20049;-84
2022/08/31 09:07:07;;;;;;;28.60;9.13;;;17.00;99.90;;;;;;4834354;29;20675;-84
2022/08/31 09:10:08;;;;;;;9.88;8.98;;;17.00;99.90;;;;;;4839893;29;20507;-84
2022/08/31 09:13:14;;;;;;;14.25;9.50;;;17.00;99.90;;;;;;4849331;29;20052;-84
2022/08/31 09:15:54;;;;;;;9.15;8.20;;;16.90;99.90;;;;;;4884309;29;20056;-86
2022/08/31 09:18:40;;;;;;;9.10;8.07;;;16.80;99.90;;;;;;4890178;29;20049;-83
2022/08/31 09:21:40;;;;;;;;;;;16.80;99.90;;;;;;4857067;29;20407;-83
2022/08/31 09:24:14;;;;;;;15.25;8.00;;;16.70;99.90;;;;;;4815276;29;19928;-84
2022/08/31 09:27:17;;;;;;;8.23;6.47;;;16.60;99.90;;;;;;4856465;29;20057;-85
2022/08/31 09:29:57;;;;;;;10.55;8.77;;;16.60;99.90;;;;;;4826941;29;20060;-84
2022/08/31 09:32:38;;;;;;;14.27;8.68;;;16.60;99.90;;;;;;4855341;29;20068;-86
2022/08/31 09:36:04;;;;;;;;;;;;;;;;;;;;;
2022/08/31 09:40:02;;;;;;;12.82;6.10;;;16.10;99.90;;;;;;4891476;23;20423;-84
2022/08/31 09:44:30;;;;;;;12.23;7.78;;;15.80;99.90;;;;;;4867441;29;20292;-87
2022/08/31 09:47:54;;;;;;;9.93;7.72;;;15.30;99.90;;;;;;5028381;23;20053;-86
2022/08/31 09:50:44;;;;;;;14.70;7.87;;;15.10;99.90;;;;;;4841510;29;20517;-85
2022/08/31 09:56:21;;;;;;;8.52;4.90;;;15.20;99.90;;;;;;4855436;29;20050;-84
2022/08/31 09:58:56;;;;;;;7.57;5.03;;;15.20;99.90;;;;;;4840303;29;20049;-84
2022/08/31 10:01:41;;;;;;;9.50;8.10;;;15.00;99.90;;;;;;4855020;29;20045;-85
2022/08/31 10:04:14;;;;;;;6.72;5.85;;;15.00;99.90;;;;;;4854151;29;20046;-86
2022/08/31 10:07:23;;;;;;;8.68;6.05;;;15.10;99.90;;;;;;4824674;29;20058;-86
2022/08/31 10:10:14;;;;;;;6.03;5.43;;;15.00;99.90;;;;;;4823547;29;20041;-85
2022/08/31 10:13:21;;;;;;;6.65;4.72;;;14.90;99.90;;;;;;4823537;29;20439;-87
2022/08/31 10:15:56;;;;;;;;;;;15.00;99.90;;;;;;4870147;29;20048;-86
2022/08/31 10:18:42;;;;;;;8.32;7.18;;;15.10;99.90;;;;;;4876531;29;20296;-86
2022/08/31 10:21:23;;;;;;;6.97;5.90;;;15.00;99.90;;;;;;4875242;29;20362;-87
2022/08/31 10:24:19;;;;;;;7.30;5.82;;;15.00;99.90;;;;;;4874420;29;20055;-87
2022/08/31 10:27:09;;;;;;;9.98;6.50;;;15.10;99.90;;;;;;4861429;29;20052;-88
2022/08/31 10:29:46;;;;;;;17.23;7.60;;;15.10;99.90;;;;;;4875843;29;20049;-88
2022/08/31 10:32:34;;;;;;;7.18;6.03;;;15.10;99.90;;;;;;4891675;29;20052;-88
2022/08/31 10:35:46;;;;;;;8.15;6.13;;;15.20;99.90;;;;;;4861095;29;20514;-88
2022/08/31 10:38:22;;;;;;;13.32;8.43;;;15.30;99.90;;;;;;4789557;29;20053;-89
2022/08/31 10:41:02;;;;;;;8.25;7.35;;;15.40;99.90;;;;;;4843058;29;20291;-89
2022/08/31 10:43:44;;;;;;;7.32;6.63;;;15.50;99.90;;;;;;4839364;29;20412;-88
2022/08/31 10:46:16;;;;;;;6.97;6.30;;;15.50;99.90;;;;;;4840021;29;20065;-89
2022/08/31 10:56:04;;;;;;;11.23;7.43;;;15.80;99.90;;;;;;5789038;23;20041;-86
2022/08/31 10:59:02;;;;;;;9.73;8.18;;;15.80;99.90;;;;;;4857488;29;20526;-86
2022/08/31 11:02:03;;;;;;;9.52;6.43;;;15.80;99.90;;;;;;4823592;29;20049;-87
2022/08/31 11:04:50;;;;;;;9.93;6.75;;;15.80;99.90;;;;;;4840942;29;20056;-87
2022/08/31 11:07:41;;;;;;;6.50;5.90;;;15.80;99.90;;;;;;4842418;29;20839;-88
2022/08/31 11:10:31;;;;;;;16.38;10.82;;;15.80;99.90;;;;;;4828293;29;20060;-86
2022/08/31 11:13:13;;;;;;;11.43;7.43;;;15.80;99.90;;;;;;4825590;29;20502;-86
2022/08/31 11:16:31;;;;;;;14.52;8.13;;;15.70;99.90;;;;;;4857263;29;20086;-86
2022/08/31 11:20:08;;;;;;;11.95;8.95;;;15.70;99.90;;;;;;4838129;29;20053;-87
2022/08/31 11:23:06;;;;;;;12.43;9.13;;;15.70;99.90;;;;;;4839752;29;20349;-87
2022/08/31 11:26:25;;;;;;;13.48;8.27;;;15.70;99.90;;;;;;4810934;29;20041;-87
2022/08/31 11:30:22;;;;;;;10.48;8.38;;;15.90;99.90;;;;;;4722922;30;20077;-90
2022/08/31 11:34:15;;;;;;;17.58;8.80;;;15.60;99.90;;;;;;4787925;29;20451;-92
2022/08/31 11:43:02;;;;;;;15.35;10.02;;;15.80;99.90;;;;;;4778944;29;20057;-91
2022/08/31 11:47:15;;;;;;;13.68;9.38;;;15.90;99.90;;;;;;4675101;30;20066;-91
2022/08/31 11:51:48;;;;;;;11.93;9.68;;;15.90;99.90;;;;;;4875257;23;20064;-90
2022/08/31 12:11:23;;;;;;;9.93;8.35;;;15.80;99.90;;;;;;5247759;23;19927;-86
2022/08/31 12:24:35;;;;;;;13.75;11.80;;;15.90;99.90;;;;;;4837295;29;20060;-90
2022/08/31 12:32:56;;;;;;;11.55;9.32;;;16.10;99.90;;;;;;4835013;29;20390;-86
2022/08/31 12:36:24;;;;;;;11.43;9.55;;;16.20;99.90;;;;;;4861542;29;20502;-90
2022/08/31 12:39:42;;;;;;;11.45;8.65;;;16.10;99.90;;;;;;4834684;29;20529;-86
2022/08/31 12:42:47;;;;;;;9.52;8.55;;;16.00;99.90;;;;;;4836968;29;20410;-86
2022/08/31 12:45:54;;;;;;;10.68;9.32;;;16.10;99.90;;;;;;4842265;29;20041;-85
2022/08/31 12:49:02;;;;;;;13.25;8.57;;;15.80;99.90;;;;;;4872051;29;20063;-84
2022/08/31 12:51:55;;;;;;;10.38;9.38;;;15.80;99.90;;;;;;4857340;29;20061;-84
2022/08/31 12:54:57;;;;;;;12.77;10.35;;;15.80;99.90;;;;;;4857027;29;20064;-86
2022/08/31 12:58:00;;;;;;;14.05;9.50;;;15.80;99.90;;;;;;4839603;29;20084;-86
2022/08/31 13:00:32;;;;;;;10.82;9.45;;;15.90;99.90;;;;;;4824190;29;20049;-86
2022/08/31 13:03:17;;;;;;;13.38;11.65;;;15.80;99.90;;;;;;4857062;29;20061;-86
2022/08/31 13:06:01;;;;;;;17.23;13.05;;;15.90;99.90;;;;;;4854609;29;20056;-85
2022/08/31 13:08:39;;;;;;;17.30;12.52;;;16.00;99.90;;;;;;4836625;29;20045;-86
2022/08/31 13:11:28;;;;;;;13.48;11.15;;;15.90;99.90;;;;;;4824737;29;20081;-85
2022/08/31 13:14:27;;;;;;;18.00;11.57;;;15.90;99.90;;;;;;4828758;29;20049;-85
2022/08/31 13:17:21;;;;;;;13.52;10.70;;;16.00;99.90;;;;;;4876281;29;20040;-85
2022/08/31 13:19:56;;;;;;;12.43;11.10;;;16.00;99.90;;;;;;4858327;29;20049;-85
2022/08/31 13:22:38;;;;;;;14.98;11.27;;;16.10;99.90;;;;;;4872277;29;20479;-84
2022/08/31 13:25:34;;;;;;;11.70;10.43;;;16.00;99.90;;;;;;4857786;29;20411;-85
2022/08/31 13:28:12;;;;;;;11.52;9.07;;;16.00;99.90;;;;;;4857118;29;20506;-84
2022/08/31 13:30:55;;;;;;;15.88;10.75;;;16.00;99.90;;;;;;4874055;29;20483;-85
2022/08/31 13:33:38;;;;;;;13.30;10.73;;;16.00;99.90;;;;;;4873525;29;20827;-85
2022/08/31 13:36:32;;;;;;;9.57;8.38;;;15.90;99.90;;;;;;4844445;29;20041;-85
2022/08/31 13:39:22;;;;;;;16.58;8.88;;;16.00;99.90;;;;;;4841319;29;20060;-83
2022/08/31 13:42:11;;;;;;;12.07;10.88;;;15.90;99.90;;;;;;4874362;29;20048;-84
2022/08/31 13:45:09;;;;;;;12.60;8.82;;;15.80;99.90;;;;;;4873603;29;20053;-85
2022/08/31 13:47:38;;;;;;;14.75;8.68;;;15.80;99.90;;;;;;4859105;29;20498;-85
2022/08/31 13:50:31;;;;;;;9.02;8.15;;;15.80;99.90;;;;;;4859555;29;20053;-84
2022/08/31 13:53:04;;;;;;;11.35;8.90;;;15.90;99.90;;;;;;4854102;29;20066;-85
2022/08/31 13:56:03;;;;;;;11.85;9.13;;;15.90;99.90;;;;;;4849324;29;20390;-85
2022/08/31 13:58:39;;;;;;;11.68;10.02;;;16.00;99.90;;;;;;4842301;29;20326;-88
2022/08/31 14:01:25;;;;;;;10.95;9.55;;;16.10;99.90;;;;;;4846957;29;20364;-88
2022/08/31 14:03:57;;;;;;;9.35;7.72;;;16.10;99.90;;;;;;4856103;29;20045;-85
2022/08/31 14:06:48;;;;;;;10.75;8.98;;;16.10;99.90;;;;;;4872259;29;20413;-86
2022/08/31 14:09:17;;;;;;;10.70;8.87;;;16.10;99.90;;;;;;4855073;29;20060;-83
2022/08/31 14:12:00;;;;;;;10.23;8.45;;;16.10;99.90;;;;;;4841614;29;20045;-84
2022/08/31 14:14:42;;;;;;;7.10;6.47;;;16.00;99.90;;;;;;4876903;29;20056;-82
2022/08/31 14:17:16;;;;;;;8.35;7.53;;;15.90;99.90;;;;;;4877422;29;20052;-82
2022/08/31 14:19:44;;;;;;;11.63;7.25;;;15.90;99.90;;;;;;4875757;29;20075;-81
2022/08/31 14:22:31;;;;;;;10.15;7.18;;;16.00;99.90;;;;;;4891672;29;20406;-83
2022/08/31 14:25:01;;;;;;;7.38;6.68;;;15.90;99.90;;;;;;4892104;29;20041;-82
2022/08/31 14:27:29;;;;;;;9.20;6.38;;;15.90;99.90;;;;;;4893663;29;20091;-83
2022/08/31 14:29:58;;;;;;;6.68;5.53;;;15.80;99.90;;;;;;4892393;29;20060;-82
2022/08/31 14:32:28;;;;;;;7.07;6.38;;;15.70;99.90;;;;;;4904956;29;20518;-82
2022/08/31 14:34:56;;;;;;;10.88;7.88;;;15.60;99.90;;;;;;4896041;29;20059;-82
2022/08/31 14:37:28;;;;;;;7.20;6.47;;;15.60;99.90;;;;;;4877750;29;20453;-82
2022/08/31 14:39:59;;;;;;;7.95;5.85;;;15.60;99.90;;;;;;4895018;29;20055;-81
2022/08/31 14:42:37;;;;;;;6.95;5.45;;;15.50;99.90;;;;;;4874473;29;20052;-82
2022/08/31 14:45:18;;;;;;;6.32;5.40;;;15.50;99.90;;;;;;4827621;29;20060;-83
2022/08/31 14:47:50;;;;;;;16.25;6.10;;;15.50;99.90;;;;;;4857522;29;20044;-81
2022/08/31 14:50:23;;;;;;;7.50;5.07;;;15.50;99.90;;;;;;4858202;29;20064;-82
2022/08/31 14:52:53;;;;;;;7.65;6.95;;;15.40;99.90;;;;;;4858619;29;20068;-82
2022/08/31 14:55:24;;;;;;;7.25;4.72;;;15.40;99.90;;;;;;4860216;29;20064;-83
2022/08/31 14:58:50;;;;;;;;;;;;;;;;;;;;;
2022/08/31 15:01:34;;;;;;;5.57;4.78;;;15.40;99.90;;;;;;4842733;29;20068;-81
2022/08/31 15:04:03;;;;;;;5.05;4.60;;;15.30;99.90;;;;;;4861146;29;20049;-83
2022/08/31 15:06:37;;;;;;;3.97;3.58;;;15.30;99.90;;;;;;4878927;29;20455;-84
2022/08/31 15:09:20;;;;;;;8.75;5.25;;;15.20;99.90;;;;;;4830800;29;20056;-83
2022/08/31 15:11:50;;;;;;;6.63;4.75;;;15.10;99.90;;;;;;4860447;29;20045;-83
2022/08/31 15:14:18;;;;;;;7.15;4.78;;;15.10;99.90;;;;;;4866413;29;20055;-85
2022/08/31 15:16:49;;;;;;;7.50;4.77;;;15.00;99.90;;;;;;4881347;29;20055;-85
2022/08/31 15:19:23;;;;;;;4.47;4.05;;;15.00;99.90;;;;;;4856407;29;20053;-84
2022/08/31 15:21:53;;;;;;;5.90;5.25;;;15.00;99.90;;;;;;4875800;29;20044;-83
2022/08/31 15:24:29;;;;;;;5.90;5.03;;;15.00;99.90;;;;;;4860444;29;20068;-83
2022/08/31 15:26:57;;;;;;;4.82;4.32;;;15.00;99.90;;;;;;4878575;29;20049;-83
2022/08/31 15:29:27;;;;;;;5.50;4.40;;;15.00;99.90;;;;;;4877308;29;20045;-83
2022/08/31 15:31:57;;;;;;;5.78;5.28;;;15.10;99.90;;;;;;4845023;29;20072;-84
2022/08/31 15:34:29;;;;;;;6.32;5.72;;;15.10;99.90;;;;;;4861003;29;20407;-85
2022/08/31 15:37:06;;;;;;;6.18;5.45;;;15.10;99.90;;;;;;4866373;29;20052;-85
2022/08/31 15:39:48;;;;;;;6.70;6.05;;;15.10;99.90;;;;;;4864258;29;20049;-84
2022/08/31 15:42:19;;;;;;;6.03;5.30;;;15.00;99.90;;;;;;4863175;29;20052;-84
2022/08/31 15:44:55;;;;;;;9.00;5.68;;;15.00;99.90;;;;;;4874705;29;20051;-84
2022/08/31 15:53:41;;;;;;;6.95;5.70;;;14.90;99.90;;;;;;4841700;29;20124;-83
2022/08/31 15:56:12;;;;;;;6.50;5.60;;;14.80;99.90;;;;;;4849147;29;20079;-84
2022/08/31 15:58:40;;;;;;;5.57;5.00;;;14.80;99.90;;;;;;4859717;29;20045;-83
2022/08/31 16:01:21;;;;;;;6.05;5.38;;;14.80;99.90;;;;;;4876059;29;20431;-85
2022/08/31 16:04:24;;;;;;;7.60;6.00;;;15.00;99.90;;;;;;4833232;29;20060;-83
2022/08/31 16:06:54;;;;;;;6.40;5.80;;;14.70;99.90;;;;;;4857440;29;20049;-83
2022/08/31 16:09:23;;;;;;;8.40;5.87;;;14.70;99.90;;;;;;4858275;29;20048;-84
2022/08/31 16:11:55;;;;;;;7.18;5.97;;;14.70;99.90;;;;;;4830082;29;20281;-84
2022/08/31 16:14:37;;;;;;;6.60;5.95;;;14.70;99.90;;;;;;4851901;29;20505;-84
2022/08/31 16:17:05;;;;;;;;;;;14.60;99.90;;;;;;4897672;29;20048;-83
2022/08/31 16:19:35;;;;;;;9.00;5.38;;;14.70;99.90;;;;;;4880890;29;19923;-83
2022/08/31 16:22:07;;;;;;;6.05;4.72;;;14.70;99.90;;;;;;4914667;29;20055;-83
2022/08/31 16:24:50;;;;;;;6.18;5.53;;;14.70;99.90;;;;;;4895812;29;20059;-84
2022/08/31 16:27:23;;;;;;;12.25;6.30;;;14.70;99.90;;;;;;4880628;29;20059;-82
2022/08/31 16:29:51;;;;;;;8.27;6.97;;;14.70;99.90;;;;;;4913300;29;20044;-83
2022/08/31 16:32:19;;;;;;;7.28;6.68;;;14.70;99.90;;;;;;4881281;29;20044;-83
2022/08/31 16:34:47;;;;;;;6.57;5.88;;;14.70;99.90;;;;;;4882523;29;20497;-84
2022/08/31 16:37:16;;;;;;;7.35;5.55;;;14.70;99.90;;;;;;4896619;29;20055;-84
2022/08/31 16:39:45;;;;;;;6.82;5.97;;;14.70;99.90;;;;;;4913022;29;20043;-84
2022/08/31 16:42:37;;;;;;;6.88;6.28;;;14.80;99.90;;;;;;4859403;29;20053;-85
2022/08/31 16:51:24;;;;;;;8.77;7.47;;;14.80;99.90;;;;;;5330557;23;20049;-86
2022/08/31 16:55:38;;;;;;;11.73;7.38;;;14.80;99.90;;;;;;4949202;23;20052;-89
2022/08/31 16:59:45;;;;;;;8.55;6.20;;;14.70;99.90;;;;;;4840198;29;20037;-84
2022/08/31 17:07:45;;;;;;;6.63;6.03;;;14.70;99.90;;;;;;4869347;29;20410;-88
2022/08/31 17:10:48;;;;;;;17.08;8.73;;;14.70;99.90;;;;;;4796557;29;20057;-89
2022/08/31 17:13:23;;;;;;;10.05;6.88;;;14.70;99.90;;;;;;4809524;29;20416;-88
2022/08/31 17:16:27;;;;;;;8.90;8.00;;;14.70;99.90;;;;;;4799414;29;20047;-88
2022/08/31 17:19:15;;;;;;;8.07;7.20;;;14.70;99.90;;;;;;4789002;29;20153;-88
2022/08/31 17:22:19;;;;;;;7.15;6.32;;;14.70;99.90;;;;;;4809399;29;20411;-89
2022/08/31 17:25:18;;;;;;;8.05;6.55;;;14.70;99.90;;;;;;4829731;29;20058;-88
2022/08/31 17:28:05;;;;;;;9.77;7.25;;;14.80;99.90;;;;;;4831078;29;20057;-89
2022/08/31 17:30:45;;;;;;;7.97;7.18;;;14.80;99.90;;;;;;4818266;29;20057;-88
2022/08/31 17:33:13;;;;;;;8.80;7.90;;;14.70;99.90;;;;;;4834481;29;20053;-88
2022/08/31 17:35:41;;;;;;;9.40;8.48;;;14.80;99.90;;;;;;4834463;29;20053;-88
2022/08/31 17:38:09;;;;;;;7.30;6.50;;;14.70;99.90;;;;;;4831985;29;20054;-89
2022/08/31 17:40:43;;;;;;;8.52;7.68;;;14.70;99.90;;;;;;4833507;29;20455;-89
2022/08/31 17:43:25;;;;;;;16.50;9.02;;;14.80;99.90;;;;;;4817538;29;20084;-88
2022/08/31 17:46:00;;;;;;;7.10;6.40;;;14.60;99.90;;;;;;4835101;29;20440;-87
2022/08/31 17:48:34;;;;;;;8.05;7.20;;;14.70;99.90;;;;;;4837271;29;20046;-88
2022/08/31 17:51:15;;;;;;;7.88;6.40;;;14.70;99.90;;;;;;4823918;29;20060;-89
2022/08/31 17:53:44;;;;;;;;;;;14.60;99.90;;;;;;4837234;29;20516;-87
2022/08/31 17:56:14;;;;;;;10.00;7.65;;;14.70;99.90;;;;;;4869974;29;19939;-86
2022/08/31 17:58:45;;;;;;;9.87;8.73;;;14.70;99.90;;;;;;4824847;29;20060;-86
2022/08/31 18:01:19;;;;;;;;;;;14.70;99.90;;;;;;4853991;29;20046;-85
2022/08/31 18:03:47;;;;;;;7.80;7.00;;;14.70;99.90;;;;;;4852526;29;19924;-85
2022/08/31 18:06:16;;;;;;;7.20;6.55;;;14.80;99.90;;;;;;4855233;29;20053;-86
2022/08/31 18:08:45;;;;;;;9.38;7.65;;;14.80;99.90;;;;;;4821188;29;20068;-86
2022/08/31 18:11:13;;;;;;;8.85;7.95;;;14.80;99.90;;;;;;4839155;29;20061;-86
2022/08/31 18:13:42;;;;;;;9.48;7.18;;;14.70;99.90;;;;;;4824007;29;20360;-86
2022/08/31 18:16:22;;;;;;;11.85;8.45;;;14.80;99.90;;;;;;4861047;29;20514;-86
2022/08/31 18:18:50;;;;;;;10.38;8.27;;;14.70;99.90;;;;;;4861052;29;20100;-86
2022/08/31 18:21:24;;;;;;;10.07;9.07;;;14.70;99.90;;;;;;4861106;29;20523;-86
2022/08/31 18:23:54;;;;;;;9.75;8.75;;;14.70;99.90;;;;;;4875430;29;20044;-85
2022/08/31 18:26:36;;;;;;;12.68;8.27;;;14.70;99.90;;;;;;4861028;29;20514;-85
2022/08/31 18:29:07;;;;;;;10.82;9.00;;;14.70;99.90;;;;;;4876171;29;20059;-84
2022/08/31 18:31:37;;;;;;;9.57;7.75;;;14.70;99.90;;;;;;4891994;29;20056;-86
2022/08/31 18:34:09;;;;;;;11.82;8.50;;;14.70;99.90;;;;;;4892127;29;20060;-86
2022/08/31 18:36:39;;;;;;;12.88;8.25;;;14.70;99.90;;;;;;4876552;29;20056;-86
2022/08/31 18:39:10;;;;;;;9.90;8.07;;;14.70;99.90;;;;;;4874079;29;20060;-86
2022/08/31 18:47:13;;;;;;;10.80;7.55;;;14.70;99.90;;;;;;4839831;29;20057;-86
2022/08/31 18:49:42;;;;;;;8.73;7.90;;;14.60;99.90;;;;;;4823365;29;20046;-85
2022/08/31 18:52:14;;;;;;;11.73;10.57;;;14.60;99.90;;;;;;4839395;29;20495;-85
2022/08/31 18:54:42;;;;;;;11.85;8.43;;;14.60;99.90;;;;;;4823998;29;20060;-88
2022/08/31 18:57:11;;;;;;;13.20;9.30;;;14.60;99.90;;;;;;4855175;29;20475;-88
2022/08/31 18:59:47;;;;;;;10.70;9.60;;;14.60;99.90;;;;;;4854105;29;20053;-87
2022/08/31 19:02:21;;;;;;;21.05;10.45;;;14.60;99.90;;;;;;4839923;29;20046;-87
2022/08/31 19:04:50;;;;;;;12.77;9.90;;;14.50;99.90;;;;;;4855042;29;20415;-87
2022/08/31 19:07:18;;;;;;;9.95;8.68;;;14.50;99.90;;;;;;4839478;29;20416;-88
2022/08/31 19:09:50;;;;;;;11.65;9.32;;;14.50;99.90;;;;;;4838867;29;20380;-87
2022/08/31 19:12:18;;;;;;;9.63;8.65;;;14.50;99.90;;;;;;4839370;29;20054;-87
2022/08/31 19:14:49;;;;;;;13.15;10.60;;;14.50;99.90;;;;;;4838939;29;20068;-89
2022/08/31 19:17:18;;;;;;;11.63;9.32;;;14.50;99.90;;;;;;4876236;29;20052;-87
2022/08/31 19:19:47;;;;;;;15.93;8.15;;;14.50;99.90;;;;;;4864115;29;20053;-87
2022/08/31 19:22:17;;;;;;;12.10;9.18;;;14.50;99.90;;;;;;4873181;29;20061;-87
2022/08/31 19:24:45;;;;;;;8.98;7.15;;;14.50;99.90;;;;;;4857149;29;20041;-88
2022/08/31 19:27:13;;;;;;;10.68;9.48;;;14.50;99.90;;;;;;4873716;29;20061;-88
2022/08/31 19:29:41;;;;;;;12.13;8.52;;;14.50;99.90;;;;;;4857287;29;20053;-87
2022/08/31 19:32:09;;;;;;;11.98;10.32;;;14.50;99.90;;;;;;4842371;29;20515;-87
2022/08/31 19:34:42;;;;;;;11.52;10.30;;;14.60;99.90;;;;;;4843178;29;20754;-87
2022/08/31 19:37:11;;;;;;;11.98;9.60;;;14.60;99.90;;;;;;4841887;29;20057;-87
2022/08/31 19:39:42;;;;;;;8.93;7.88;;;14.60;99.90;;;;;;4857888;29;20067;-87
2022/08/31 19:42:13;;;;;;;20.25;10.35;;;14.60;99.90;;;;;;4861502;29;20068;-87
2022/08/31 19:44:45;;;;;;;;;;;14.50;99.90;;;;;;4876048;29;20041;-87
2022/08/31 19:47:37;;;;;;;9.95;7.75;;;14.50;99.90;;;;;;4876188;29;19932;-87
2022/08/31 19:50:05;;;;;;;9.70;8.60;;;14.50;99.90;;;;;;4877568;29;20068;-87
2022/08/31 19:52:42;;;;;;;10.88;7.95;;;14.50;99.90;;;;;;4859934;29;20061;-88
2022/08/31 19:55:11;;;;;;;14.38;8.43;;;14.40;99.90;;;;;;4846165;29;20071;-87
2022/08/31 19:57:42;;;;;;;10.93;8.73;;;14.40;99.90;;;;;;4860728;29;20060;-87
2022/08/31 20:00:11;;;;;;;13.70;7.97;;;14.50;99.90;;;;;;4860270;29;20053;-87
2022/08/31 20:02:40;;;;;;;9.60;8.60;;;14.40;99.90;;;;;;4877924;29;20049;-87
2022/08/31 20:05:09;;;;;;;10.45;9.20;;;14.30;99.90;;;;;;4842234;29;20038;-87
2022/08/31 20:07:40;;;;;;;13.00;8.77;;;14.40;99.90;;;;;;4840313;29;20053;-86
2022/08/31 20:10:08;;;;;;;12.18;8.75;;;14.40;99.90;;;;;;4873105;29;20049;-86
2022/08/31 20:12:38;;;;;;;12.18;10.32;;;14.40;99.90;;;;;;4842139;29;20056;-87
2022/08/31 20:15:06;;;;;;;12.98;9.90;;;14.40;99.90;;;;;;4851726;29;20052;-86
2022/08/31 20:17:34;;;;;;;10.05;8.85;;;14.40;99.90;;;;;;4860235;29;20410;-87
2022/08/31 20:20:02;;;;;;;14.25;12.05;;;14.40;99.90;;;;;;4860128;29;20435;-86
2022/08/31 20:22:30;;;;;;;15.40;9.07;;;14.40;99.90;;;;;;4859303;29;20072;-87
2022/08/31 20:25:00;;;;;;;13.50;9.02;;;14.40;99.90;;;;;;4845469;29;20060;-86
2022/08/31 20:27:29;;;;;;;9.45;8.43;;;14.40;99.90;;;;;;4859962;29;20051;-86
2022/08/31 20:29:58;;;;;;;10.05;8.52;;;14.40;99.90;;;;;;4875494;29;20079;-87
2022/08/31 20:32:27;;;;;;;13.52;10.48;;;14.30;99.90;;;;;;4859520;29;20049;-87
2022/08/31 20:34:56;;;;;;;11.05;8.77;;;14.30;99.90;;;;;;4860792;29;20067;-86
2022/08/31 20:37:24;;;;;;;14.32;9.32;;;14.30;99.90;;;;;;4874031;29;20061;-87
2022/08/31 20:39:52;;;;;;;12.45;9.05;;;14.30;99.90;;;;;;4859548;29;20395;-86
2022/08/31 20:42:22;;;;;;;13.98;10.55;;;14.30;99.90;;;;;;4855080;29;20083;-86
2022/08/31 20:44:50;;;;;;;9.43;7.93;;;14.30;99.90;;;;;;4838477;29;20535;-86
2022/08/31 20:50:06;;;;;;;13.52;11.80;;;14.30;99.90;;;;;;4806833;29;20539;-86
2022/08/31 20:52:35;;;;;;;10.85;8.68;;;14.20;99.90;;;;;;4836626;29;20054;-85
2022/08/31 20:55:05;;;;;;;11.13;9.95;;;14.20;99.90;;;;;;4839241;29;20049;-87
2022/08/31 20:57:35;;;;;;;11.65;10.40;;;14.20;99.90;;;;;;4838073;29;20053;-87
2022/08/31 21:00:05;;;;;;;13.27;10.43;;;14.20;99.90;;;;;;4836518;29;20042;-87
2022/08/31 21:02:33;;;;;;;14.40;11.05;;;14.10;99.90;;;;;;4838531;29;20065;-86
2022/08/31 21:05:03;;;;;;;19.35;11.75;;;14.10;99.90;;;;;;4853274;29;20066;-86
2022/08/31 21:07:52;;;;;;;15.07;12.55;;;14.10;99.90;;;;;;4849483;29;20491;-86
2022/08/31 21:10:28;;;;;;;13.20;10.85;;;14.20;99.90;;;;;;4837528;29;20079;-86
2022/08/31 21:13:10;;;;;;;14.10;11.90;;;14.20;99.90;;;;;;4838109;29;20148;-86
2022/08/31 21:15:45;;;;;;;14.27;11.02;;;14.10;99.90;;;;;;4853942;29;20063;-86
2022/08/31 21:18:17;;;;;;;13.02;11.55;;;14.10;99.90;;;;;;4874426;29;20483;-86
2022/08/31 21:20:46;;;;;;;12.57;10.77;;;14.20;99.90;;;;;;4840660;29;20523;-86
2022/08/31 21:23:14;;;;;;;16.98;11.00;;;14.10;99.90;;;;;;4839943;29;20069;-86
2022/08/31 21:25:43;;;;;;;15.90;12.43;;;14.10;99.90;;;;;;4855876;29;20060;-86
2022/08/31 21:28:30;;;;;;;18.33;12.70;;;14.10;99.90;;;;;;4854990;29;20042;-86
2022/08/31 21:31:07;;;;;;;17.92;15.23;;;14.10;99.90;;;;;;4841195;29;20053;-86
2022/08/31 21:33:45;;;;;;;17.02;15.20;;;14.10;99.90;;;;;;4826678;29;20060;-86
2022/08/31 21:36:14;;;;;;;18.02;12.98;;;14.10;99.90;;;;;;4840187;29;20057;-86
2022/08/31 21:38:43;;;;;;;16.67;13.13;;;14.00;99.90;;;;;;4823941;29;20419;-86
2022/08/31 21:41:14;;;;;;;18.08;13.73;;;14.10;99.90;;;;;;4826466;29;20080;-86
2022/08/31 21:43:42;;;;;;;19.75;14.77;;;14.10;99.90;;;;;;4825702;29;20061;-86
2022/08/31 21:46:14;;;;;;;28.38;16.85;;;14.10;99.90;;;;;;4856659;29;20049;-86
2022/08/31 21:48:43;;;;;;;26.63;14.32;;;14.00;99.90;;;;;;4824412;29;20053;-86
2022/08/31 21:51:17;;;;;;;16.77;14.07;;;14.10;99.90;;;;;;4838267;29;20070;-87
2022/08/31 21:53:48;;;;;;;15.45;13.10;;;14.10;99.90;;;;;;4851356;29;20058;-86
2022/08/31 21:56:22;;;;;;;16.48;14.63;;;14.00;99.90;;;;;;4843630;29;20058;-86
2022/08/31 21:58:50;;;;;;;20.42;16.15;;;14.00;99.90;;;;;;4824699;29;20069;-86
2022/08/31 22:01:19;;;;;;;22.33;15.88;;;14.00;99.90;;;;;;4856689;29;20049;-86
2022/08/31 22:03:49;;;;;;;25.00;16.67;;;14.00;99.90;;;;;;4840139;29;20515;-86
2022/08/31 22:06:21;;;;;;;22.45;15.73;;;14.00;99.90;;;;;;4856124;29;20058;-87
2022/08/31 22:08:56;;;;;;;21.40;17.70;;;14.00;99.90;;;;;;4822469;29;20073;-86
2022/08/31 22:11:24;;;;;;;19.63;13.98;;;14.00;99.90;;;;;;4840808;29;20064;-86
2022/08/31 22:13:55;;;;;;;20.85;16.17;;;14.00;99.90;;;;;;4855033;29;20538;-86
2022/08/31 22:16:24;;;;;;;22.80;16.55;;;14.00;99.90;;;;;;4846929;29;20514;-86
2022/08/31 22:18:56;;;;;;;23.02;16.25;;;13.90;99.90;;;;;;4860975;29;20053;-86
2022/08/31 22:21:33;;;;;;;21.45;16.80;;;13.90;99.90;;;;;;4861735;29;20052;-87
2022/08/31 22:24:13;;;;;;;23.10;16.13;;;13.90;99.90;;;;;;4874395;29;20403;-86
2022/08/31 22:26:56;;;;;;;25.20;16.55;;;13.90;99.90;;;;;;4876520;29;20154;-86
2022/08/31 22:29:26;;;;;;;27.23;18.27;;;13.90;99.90;;;;;;4860865;29;20049;-86
2022/08/31 22:32:12;;;;;;;29.77;18.80;;;13.90;99.90;;;;;;4876754;29;20746;-89
2022/08/31 22:34:41;;;;;;;30.55;20.73;;;13.90;99.90;;;;;;4863910;29;20052;-87
2022/08/31 22:37:10;;;;;;;26.00;18.10;;;13.90;99.90;;;;;;4876140;29;20053;-87
2022/08/31 22:39:41;;;;;;;29.13;19.50;;;13.90;99.90;;;;;;4873662;29;20510;-88
2022/08/31 22:42:10;;;;;;;27.40;18.13;;;13.90;99.90;;;;;;4843492;29;20411;-88
2022/08/31 22:44:39;;;;;;;26.40;18.92;;;13.80;99.90;;;;;;4854986;29;20055;-86